Time;durP1;ratioP1;P1;durP2;ratioP2;P2;SDS_P1;SDS_P2;PMS_P1;PMS_P2;Temp;Humidity;BMP_temperature;BMP_pressure;BME280_temperature;BME280_humidity;BME280_pressure;Samples;Min_cycle;Max_cycle;Signal;HPM_P1;HPM_P2
2022/04/27 00:00:18;;;;;;;31.58;11.88;;;7.40;99.90;;;;;;5086716;22;20048;-64
2022/04/27 00:02:44;;;;;;;18.23;8.88;;;7.40;99.90;;;;;;5073365;28;20115;-64
2022/04/27 00:05:10;;;;;;;17.33;8.57;;;7.40;99.90;;;;;;5073244;28;20460;-63
2022/04/27 00:07:36;;;;;;;18.13;9.10;;;7.40;99.90;;;;;;5074265;28;20020;-63
2022/04/27 00:10:03;;;;;;;20.23;8.98;;;7.40;99.90;;;;;;5073077;28;20025;-64
2022/04/27 00:12:28;;;;;;;20.98;9.80;;;7.30;99.90;;;;;;5074728;28;20032;-64
2022/04/27 00:14:54;;;;;;;17.58;9.38;;;7.30;99.90;;;;;;5074747;28;20036;-63
2022/04/27 00:17:19;;;;;;;22.17;8.77;;;7.30;99.90;;;;;;5075007;28;20028;-64
2022/04/27 00:19:45;;;;;;;19.00;8.95;;;7.30;99.90;;;;;;5074628;28;20032;-64
2022/04/27 00:22:16;;;;;;;22.90;10.90;;;7.30;99.90;;;;;;5073461;28;20499;-64
2022/04/27 00:24:42;;;;;;;19.52;9.40;;;7.20;99.90;;;;;;5073594;28;20024;-62
2022/04/27 00:27:08;;;;;;;19.17;9.18;;;7.20;99.90;;;;;;5073451;28;20031;-62
2022/04/27 00:29:34;;;;;;;18.50;9.02;;;7.20;99.90;;;;;;5072985;28;20119;-64
2022/04/27 00:31:59;;;;;;;19.70;8.82;;;7.20;99.90;;;;;;5074736;28;20025;-64
2022/04/27 00:34:25;;;;;;;23.80;10.00;;;7.10;99.90;;;;;;5073204;28;20416;-63
2022/04/27 00:36:50;;;;;;;19.67;9.23;;;7.10;99.90;;;;;;5074535;28;20024;-64
2022/04/27 00:39:17;;;;;;;18.73;9.57;;;7.00;99.90;;;;;;5073104;28;20680;-64
2022/04/27 00:41:59;;;;;;;19.33;9.45;;;7.00;99.90;;;;;;5073508;28;20086;-64
2022/04/27 00:44:28;;;;;;;17.38;9.43;;;6.90;99.90;;;;;;5073041;28;20532;-64
2022/04/27 00:46:54;;;;;;;17.83;9.32;;;6.90;99.90;;;;;;5073119;28;20024;-67
2022/04/27 00:49:19;;;;;;;19.85;10.82;;;6.90;99.90;;;;;;5072864;28;20027;-64
2022/04/27 00:51:45;;;;;;;17.17;9.07;;;6.80;99.90;;;;;;5074552;28;20033;-64
2022/04/27 00:54:12;;;;;;;18.63;9.30;;;6.80;99.90;;;;;;5074471;28;20061;-62
2022/04/27 00:56:39;;;;;;;18.77;9.68;;;6.80;99.90;;;;;;5074526;28;20078;-65
2022/04/27 00:59:05;;;;;;;17.50;9.52;;;6.80;99.90;;;;;;5074058;28;20032;-63
2022/04/27 01:01:31;;;;;;;18.05;9.32;;;6.80;99.90;;;;;;5073926;28;20427;-65
2022/04/27 01:03:57;;;;;;;22.63;9.70;;;6.80;99.90;;;;;;5073993;28;20408;-64
2022/04/27 01:06:23;;;;;;;19.30;9.32;;;6.80;99.90;;;;;;5074042;28;20017;-64
2022/04/27 01:08:49;;;;;;;20.30;9.75;;;6.70;99.90;;;;;;5074018;28;20021;-62
2022/04/27 01:11:15;;;;;;;17.52;9.13;;;6.80;99.90;;;;;;5072734;28;20036;-65
2022/04/27 01:13:40;;;;;;;18.42;9.15;;;6.70;99.90;;;;;;5073853;28;20081;-64
2022/04/27 01:16:06;;;;;;;21.15;9.55;;;6.70;99.90;;;;;;5073895;28;20024;-64
2022/04/27 01:18:32;;;;;;;19.27;9.70;;;6.70;99.90;;;;;;5073989;28;20024;-64
2022/04/27 01:20:58;;;;;;;18.63;9.70;;;6.70;99.90;;;;;;5072442;28;20082;-64
2022/04/27 01:23:23;;;;;;;20.02;10.05;;;6.60;99.90;;;;;;5073745;28;20025;-63
2022/04/27 01:25:54;;;;;;;20.25;9.60;;;6.60;99.90;;;;;;5073629;28;20021;-63
2022/04/27 01:28:31;;;;;;;21.17;9.68;;;6.50;99.90;;;;;;5072466;28;20476;-61
2022/04/27 01:30:57;;;;;;;19.73;10.02;;;6.50;99.90;;;;;;5072125;28;20017;-64
2022/04/27 01:33:23;;;;;;;18.73;10.02;;;6.40;99.90;;;;;;5072257;28;20036;-63
2022/04/27 01:35:49;;;;;;;17.13;9.32;;;6.40;99.90;;;;;;5073040;28;20024;-63
2022/04/27 01:38:16;;;;;;;19.17;10.38;;;6.30;99.90;;;;;;5073525;28;20408;-64
2022/04/27 01:40:42;;;;;;;19.90;10.50;;;6.30;99.90;;;;;;5071706;28;20453;-64
2022/04/27 01:43:07;;;;;;;21.55;10.60;;;6.30;99.90;;;;;;5073161;28;20081;-63
2022/04/27 01:45:33;;;;;;;21.05;9.93;;;6.30;99.90;;;;;;5072154;28;20051;-65
2022/04/27 01:47:59;;;;;;;20.90;10.82;;;6.20;99.90;;;;;;5071347;28;20024;-63
2022/04/27 01:50:25;;;;;;;19.83;9.65;;;6.20;99.90;;;;;;5073186;28;20074;-63
2022/04/27 01:55:36;;;;;;;20.70;12.48;;;6.20;99.90;;;;;;5073072;28;20141;-64
2022/04/27 01:58:01;;;;;;;23.98;11.73;;;6.20;99.90;;;;;;5073130;28;20539;-64
2022/04/27 02:00:27;;;;;;;34.13;18.67;;;6.20;99.90;;;;;;5071389;28;20134;-64
2022/04/27 02:02:53;;;;;;;29.65;15.80;;;6.20;99.90;;;;;;5071752;28;20428;-65
2022/04/27 02:05:18;;;;;;;24.88;13.10;;;6.20;99.90;;;;;;5071510;28;20487;-62
2022/04/27 02:07:44;;;;;;;21.98;11.57;;;6.30;99.90;;;;;;5072896;28;20052;-65
2022/04/27 02:10:09;;;;;;;39.55;22.23;;;6.30;99.90;;;;;;5072421;28;20028;-64
2022/04/27 02:12:35;;;;;;;30.30;17.27;;;6.30;99.90;;;;;;5072824;28;20056;-64
2022/04/27 02:15:02;;;;;;;21.83;11.20;;;6.30;99.90;;;;;;5072742;28;20020;-64
2022/04/27 02:17:27;;;;;;;19.55;10.70;;;6.30;99.90;;;;;;5072676;28;20024;-64
2022/04/27 02:19:53;;;;;;;21.45;10.65;;;6.30;99.90;;;;;;5072290;28;20028;-64
2022/04/27 02:22:19;;;;;;;22.13;10.95;;;6.20;99.90;;;;;;5072654;28;20020;-64
2022/04/27 02:24:44;;;;;;;21.60;10.57;;;6.20;99.90;;;;;;5072388;28;20027;-64
2022/04/27 02:27:10;;;;;;;20.70;10.38;;;6.10;99.90;;;;;;5072465;28;20024;-62
2022/04/27 02:29:36;;;;;;;19.85;10.40;;;6.00;99.90;;;;;;5072507;28;20058;-64
2022/04/27 02:32:02;;;;;;;19.63;10.70;;;5.90;99.90;;;;;;5072505;28;20031;-61
2022/04/27 02:34:27;;;;;;;26.10;13.10;;;5.90;99.90;;;;;;5072317;28;20038;-63
2022/04/27 02:36:53;;;;;;;19.85;10.20;;;5.80;99.90;;;;;;5072533;28;20036;-63
2022/04/27 02:39:19;;;;;;;25.45;11.73;;;5.80;99.90;;;;;;5072044;28;20424;-63
2022/04/27 02:41:44;;;;;;;21.55;11.73;;;5.80;99.90;;;;;;5072515;28;20115;-64
2022/04/27 02:44:10;;;;;;;22.98;11.15;;;5.70;99.90;;;;;;5072295;28;20028;-64
2022/04/27 02:46:37;;;;;;;20.65;9.93;;;5.70;99.90;;;;;;5072276;28;20024;-64
2022/04/27 02:51:54;;;;;;;21.98;10.88;;;5.70;99.90;;;;;;5072365;28;20027;-65
2022/04/27 02:54:22;;;;;;;21.85;11.30;;;5.60;99.90;;;;;;5070854;28;20484;-64
2022/04/27 02:56:49;;;;;;;25.38;12.02;;;5.60;99.90;;;;;;5072581;28;20033;-64
2022/04/27 02:59:15;;;;;;;23.02;10.88;;;5.60;99.90;;;;;;5069691;28;20039;-64
2022/04/27 03:01:41;;;;;;;21.00;11.95;;;5.60;99.90;;;;;;5072243;28;20028;-64
2022/04/27 03:04:08;;;;;;;21.60;11.15;;;5.60;99.90;;;;;;5071947;28;20036;-63
2022/04/27 03:06:34;;;;;;;23.55;12.40;;;5.60;99.90;;;;;;5071990;28;20024;-64
2022/04/27 03:08:59;;;;;;;25.75;12.25;;;5.60;99.90;;;;;;5072173;28;20551;-63
2022/04/27 03:11:25;;;;;;;20.23;11.90;;;5.60;99.90;;;;;;5071983;28;20162;-64
2022/04/27 03:13:51;;;;;;;21.08;11.43;;;5.60;99.90;;;;;;5072069;28;20025;-65
2022/04/27 03:16:16;;;;;;;22.48;11.23;;;5.60;99.90;;;;;;5070605;28;20060;-64
2022/04/27 03:18:42;;;;;;;22.70;10.82;;;5.60;99.90;;;;;;5070811;28;20032;-65
2022/04/27 03:21:09;;;;;;;24.15;12.40;;;5.60;99.90;;;;;;5071897;28;20040;-66
2022/04/27 03:23:35;;;;;;;21.25;11.95;;;5.50;99.90;;;;;;5070658;28;20028;-64
2022/04/27 03:26:00;;;;;;;21.73;12.05;;;5.50;99.90;;;;;;5071841;28;20527;-65
2022/04/27 03:28:26;;;;;;;22.58;11.85;;;5.60;99.90;;;;;;5072742;28;20021;-64
2022/04/27 03:30:52;;;;;;;22.15;12.52;;;5.60;99.90;;;;;;5071970;28;20028;-63
2022/04/27 03:33:18;;;;;;;23.27;12.30;;;5.60;99.90;;;;;;5070619;28;20029;-64
2022/04/27 03:35:44;;;;;;;24.25;11.73;;;5.50;99.90;;;;;;5071710;28;20497;-65
2022/04/27 03:38:10;;;;;;;22.45;12.40;;;5.50;99.90;;;;;;5071884;28;20040;-63
2022/04/27 03:40:37;;;;;;;24.02;12.63;;;5.40;99.90;;;;;;5070520;28;20025;-65
2022/04/27 03:43:02;;;;;;;22.23;12.63;;;5.40;99.90;;;;;;5071864;28;20484;-62
2022/04/27 03:45:28;;;;;;;27.02;13.45;;;5.40;99.90;;;;;;5071785;28;20067;-62
2022/04/27 03:47:54;;;;;;;22.48;12.57;;;5.30;99.90;;;;;;5071835;28;20499;-64
2022/04/27 03:50:20;;;;;;;22.52;12.07;;;5.40;99.90;;;;;;5069995;28;20468;-64
2022/04/27 03:52:48;;;;;;;23.33;13.05;;;5.40;99.90;;;;;;5071717;28;20032;-64
2022/04/27 03:55:14;;;;;;;22.10;13.25;;;5.40;99.90;;;;;;5070407;28;20083;-63
2022/04/27 03:57:39;;;;;;;23.73;12.90;;;5.30;99.90;;;;;;5070565;28;20628;-63
2022/04/27 04:00:06;;;;;;;22.20;12.98;;;5.30;99.90;;;;;;5070120;28;20037;-63
2022/04/27 04:02:32;;;;;;;24.17;13.73;;;5.30;99.90;;;;;;5071370;28;20090;-62
2022/04/27 04:04:58;;;;;;;22.23;13.90;;;5.20;99.90;;;;;;5071539;28;20017;-63
2022/04/27 04:07:24;;;;;;;23.13;13.82;;;5.20;99.90;;;;;;5071811;28;20519;-62
2022/04/27 04:09:49;;;;;;;24.58;15.18;;;5.20;99.90;;;;;;5071199;28;20124;-63
2022/04/27 04:12:15;;;;;;;22.38;13.13;;;5.20;99.90;;;;;;5074380;28;20036;-62
2022/04/27 04:14:40;;;;;;;22.88;13.65;;;5.20;99.90;;;;;;5075257;28;20047;-65
2022/04/27 04:17:06;;;;;;;24.98;13.35;;;5.30;99.90;;;;;;5073643;28;20024;-64
2022/04/27 04:19:35;;;;;;;24.08;13.60;;;5.30;99.90;;;;;;5074960;28;20016;-63
2022/04/27 04:22:01;;;;;;;27.55;13.23;;;5.20;99.90;;;;;;5073587;28;20027;-65
2022/04/27 04:24:27;;;;;;;25.92;14.00;;;5.30;99.90;;;;;;5073639;28;20366;-64
2022/04/27 04:29:37;;;;;;;24.58;12.85;;;5.30;99.90;;;;;;5075121;28;20031;-62
2022/04/27 04:32:03;;;;;;;23.25;13.30;;;5.30;99.90;;;;;;5074894;28;20021;-61
2022/04/27 04:34:28;;;;;;;24.60;12.85;;;5.30;99.90;;;;;;5074768;28;20040;-63
2022/04/27 04:36:54;;;;;;;23.70;13.88;;;5.30;99.90;;;;;;5074936;28;20472;-63
2022/04/27 04:39:20;;;;;;;24.35;14.82;;;5.30;99.90;;;;;;5073184;28;20093;-64
2022/04/27 04:41:46;;;;;;;23.65;13.80;;;5.40;99.90;;;;;;5074851;28;20480;-65
2022/04/27 04:44:11;;;;;;;26.85;13.80;;;5.30;99.90;;;;;;5074402;28;20031;-64
2022/04/27 04:46:37;;;;;;;24.48;13.85;;;5.40;99.90;;;;;;5074280;28;20472;-61
2022/04/27 04:49:03;;;;;;;24.25;13.32;;;5.50;99.90;;;;;;5073400;28;20016;-63
2022/04/27 04:51:29;;;;;;;22.67;13.38;;;5.50;99.90;;;;;;5074572;28;20066;-63
2022/04/27 04:53:54;;;;;;;24.85;13.68;;;5.50;99.90;;;;;;5074627;28;20035;-64
2022/04/27 04:56:20;;;;;;;25.63;13.40;;;5.60;99.90;;;;;;5073146;28;20025;-65
2022/04/27 04:58:46;;;;;;;24.70;13.23;;;5.70;99.90;;;;;;5072730;28;20058;-61
2022/04/27 05:01:12;;;;;;;26.77;15.88;;;5.90;99.90;;;;;;5074098;28;20699;-63
2022/04/27 05:03:38;;;;;;;23.02;14.02;;;5.80;99.90;;;;;;5072660;28;20028;-62
2022/04/27 05:06:04;;;;;;;23.55;14.02;;;5.80;99.90;;;;;;5074685;28;20361;-65
2022/04/27 05:08:30;;;;;;;26.40;13.60;;;5.90;99.90;;;;;;5074261;28;20024;-65
2022/04/27 05:10:56;;;;;;;28.42;15.43;;;5.90;99.90;;;;;;5073698;28;20084;-64
2022/04/27 05:13:21;;;;;;;25.33;13.05;;;5.90;99.90;;;;;;5072508;28;20062;-63
2022/04/27 05:15:48;;;;;;;25.75;14.60;;;5.90;99.90;;;;;;5072349;28;20039;-63
2022/04/27 05:18:14;;;;;;;31.10;15.25;;;6.00;99.90;;;;;;5073594;28;20035;-63
2022/04/27 05:20:39;;;;;;;29.08;15.38;;;6.00;99.90;;;;;;5073393;28;20021;-63
2022/04/27 05:23:05;;;;;;;24.30;13.68;;;6.10;99.90;;;;;;5071272;28;20056;-64
2022/04/27 05:25:33;;;;;;;27.40;15.02;;;6.20;99.90;;;;;;5073474;28;20021;-63
2022/04/27 05:27:58;;;;;;;28.93;13.53;;;6.20;99.90;;;;;;5072157;28;20476;-63
2022/04/27 05:33:25;;;;;;;24.00;14.25;;;6.30;99.90;;;;;;5031091;28;20033;-62
2022/04/27 05:35:51;;;;;;;27.17;15.48;;;6.30;99.90;;;;;;5064160;28;20029;-63
2022/04/27 05:38:16;;;;;;;28.70;15.68;;;6.40;99.90;;;;;;5073228;28;20086;-64
2022/04/27 05:40:43;;;;;;;23.85;14.63;;;6.40;99.90;;;;;;5072655;28;20070;-63
2022/04/27 05:43:09;;;;;;;27.95;14.50;;;6.40;99.90;;;;;;5072639;28;20024;-62
2022/04/27 05:45:35;;;;;;;28.13;14.95;;;6.40;99.90;;;;;;5071069;28;20073;-63
2022/04/27 05:48:02;;;;;;;29.27;13.80;;;6.50;99.90;;;;;;5072552;28;20021;-62
2022/04/27 05:50:27;;;;;;;32.60;15.10;;;6.50;99.90;;;;;;5070935;28;20474;-67
2022/04/27 05:52:58;;;;;;;29.08;16.27;;;6.50;99.90;;;;;;5071406;28;20024;-61
2022/04/27 05:55:24;;;;;;;24.08;13.88;;;6.50;99.90;;;;;;5071499;28;20028;-62
2022/04/27 05:57:50;;;;;;;23.35;13.50;;;6.50;99.90;;;;;;5072417;28;20028;-62
2022/04/27 06:00:17;;;;;;;29.02;14.27;;;6.60;99.90;;;;;;5072235;28;20047;-62
2022/04/27 06:02:44;;;;;;;24.92;14.50;;;6.70;99.90;;;;;;5071263;28;20032;-63
2022/04/27 06:05:10;;;;;;;27.02;14.85;;;6.80;99.90;;;;;;5072974;28;20020;-63
2022/04/27 06:07:36;;;;;;;24.48;13.82;;;6.80;99.90;;;;;;5072295;28;20035;-65
2022/04/27 06:10:06;;;;;;;27.80;14.23;;;6.90;99.90;;;;;;5072491;28;20103;-64
2022/04/27 06:12:36;;;;;;;24.35;13.35;;;7.00;99.90;;;;;;5072423;28;20032;-64
2022/04/27 06:15:03;;;;;;;28.13;14.02;;;7.00;99.90;;;;;;5070963;28;20073;-59
2022/04/27 06:17:30;;;;;;;23.85;13.13;;;7.00;99.90;;;;;;5071359;28;20040;-64
2022/04/27 06:19:57;;;;;;;26.50;14.23;;;7.00;99.90;;;;;;5072594;28;20093;-62
2022/04/27 06:22:22;;;;;;;24.85;14.98;;;7.20;99.90;;;;;;5072307;28;20412;-63
2022/04/27 06:24:48;;;;;;;26.50;13.77;;;7.40;99.90;;;;;;5072410;28;20029;-64
2022/04/27 06:27:13;;;;;;;25.08;14.35;;;7.50;99.90;;;;;;5072580;28;20048;-64
2022/04/27 06:29:39;;;;;;;23.85;14.32;;;7.70;99.90;;;;;;5072330;28;20032;-62
2022/04/27 06:32:05;;;;;;;26.50;13.48;;;7.80;99.90;;;;;;5071095;28;20016;-63
2022/04/27 06:34:31;;;;;;;27.63;14.00;;;8.00;99.90;;;;;;5072281;28;20034;-61
2022/04/27 06:36:56;;;;;;;22.52;12.65;;;8.10;99.90;;;;;;5072448;28;20447;-63
2022/04/27 06:39:22;;;;;;;21.38;11.82;;;8.30;99.90;;;;;;5072162;28;20025;-64
2022/04/27 06:41:48;;;;;;;24.13;11.95;;;8.40;99.90;;;;;;5072105;28;20078;-61
2022/04/27 06:44:14;;;;;;;20.80;11.93;;;8.50;99.90;;;;;;5072147;28;20028;-61
2022/04/27 06:46:39;;;;;;;21.83;12.30;;;8.60;99.90;;;;;;5072299;28;20135;-61
2022/04/27 06:49:05;;;;;;;21.27;12.00;;;8.70;99.90;;;;;;5072324;28;20359;-68
2022/04/27 06:51:31;;;;;;;22.55;12.25;;;8.80;99.90;;;;;;5072535;28;20481;-63
2022/04/27 06:53:56;;;;;;;22.75;11.57;;;8.90;99.90;;;;;;5071013;28;20024;-63
2022/04/27 06:56:22;;;;;;;20.75;12.63;;;9.00;99.90;;;;;;5072119;28;20029;-64
2022/04/27 06:58:48;;;;;;;21.95;12.38;;;9.10;99.90;;;;;;5070486;28;20029;-63
2022/04/27 07:01:13;;;;;;;25.35;12.30;;;9.20;99.90;;;;;;5071849;28;20032;-63
2022/04/27 07:03:39;;;;;;;21.77;12.23;;;9.20;99.90;;;;;;5071893;28;20028;-62
2022/04/27 07:06:09;;;;;;;25.85;11.38;;;9.30;99.90;;;;;;5070481;28;20095;-63
2022/04/27 07:08:35;;;;;;;34.88;12.45;;;9.40;99.90;;;;;;5072393;28;20023;-64
2022/04/27 07:11:00;;;;;;;19.45;9.73;;;9.50;99.90;;;;;;5072202;28;20021;-63
2022/04/27 07:13:26;;;;;;;23.23;10.85;;;9.60;99.90;;;;;;5071786;28;20393;-64
2022/04/27 07:15:56;;;;;;;21.85;10.85;;;9.60;99.90;;;;;;5072138;28;20396;-63
2022/04/27 07:18:22;;;;;;;21.63;11.00;;;9.70;99.90;;;;;;5072024;28;20033;-61
2022/04/27 07:20:48;;;;;;;17.20;10.30;;;9.70;99.90;;;;;;5071665;28;20039;-62
2022/04/27 07:23:13;;;;;;;20.25;10.00;;;9.70;99.90;;;;;;5071995;28;20052;-65
2022/04/27 07:25:39;;;;;;;21.35;10.95;;;9.70;99.90;;;;;;5072072;28;20020;-64
2022/04/27 07:28:04;;;;;;;22.33;11.55;;;9.70;99.90;;;;;;5071198;28;20027;-64
2022/04/27 07:30:30;;;;;;;18.33;10.55;;;9.80;99.90;;;;;;5071906;28;20048;-62
2022/04/27 07:32:59;;;;;;;18.83;10.13;;;10.00;99.90;;;;;;5072245;28;20143;-62
2022/04/27 07:35:24;;;;;;;19.85;9.85;;;9.90;99.90;;;;;;5072375;28;20028;-60
2022/04/27 07:37:50;;;;;;;20.52;12.20;;;10.00;99.90;;;;;;5071214;28;20028;-62
2022/04/27 07:40:16;;;;;;;18.98;9.48;;;10.00;99.90;;;;;;5071460;28;20036;-64
2022/04/27 07:42:41;;;;;;;23.70;11.40;;;10.10;99.90;;;;;;5070368;28;20031;-68
2022/04/27 07:45:08;;;;;;;20.10;9.80;;;10.20;99.90;;;;;;5071545;28;20586;-62
2022/04/27 07:47:44;;;;;;;22.67;10.02;;;10.30;99.90;;;;;;5074845;28;20270;-64
2022/04/27 07:50:11;;;;;;;20.42;9.90;;;10.40;99.90;;;;;;5075226;28;20024;-65
2022/04/27 07:52:37;;;;;;;19.73;9.85;;;10.20;99.90;;;;;;5075362;28;20125;-63
2022/04/27 07:55:05;;;;;;;20.27;9.50;;;10.30;99.90;;;;;;5074837;28;20115;-64
2022/04/27 07:57:31;;;;;;;20.95;9.80;;;10.30;99.90;;;;;;5076137;28;20044;-64
2022/04/27 07:59:58;;;;;;;19.67;9.55;;;10.40;99.90;;;;;;5075198;28;20042;-62
2022/04/27 08:02:24;;;;;;;20.92;9.77;;;10.40;99.90;;;;;;5074149;28;20529;-63
2022/04/27 08:04:50;;;;;;;18.60;8.82;;;10.50;99.90;;;;;;5075083;28;20107;-60
2022/04/27 08:07:16;;;;;;;20.10;10.00;;;10.60;99.90;;;;;;5074330;28;20120;-62
2022/04/27 08:09:44;;;;;;;17.42;9.27;;;10.80;99.90;;;;;;5075004;28;20017;-58
2022/04/27 08:12:10;;;;;;;19.10;9.85;;;10.90;99.90;;;;;;5074891;28;20103;-61
2022/04/27 08:14:36;;;;;;;18.58;9.85;;;11.00;99.90;;;;;;5074737;28;20068;-63
2022/04/27 08:17:02;;;;;;;17.60;9.00;;;11.10;99.90;;;;;;5074823;28;20107;-58
2022/04/27 08:19:28;;;;;;;19.90;9.60;;;11.20;99.90;;;;;;5074586;28;20037;-60
2022/04/27 08:21:54;;;;;;;20.88;10.30;;;11.20;99.90;;;;;;5074859;28;20396;-61
2022/04/27 08:24:21;;;;;;;18.30;9.68;;;11.20;99.90;;;;;;5074516;28;20017;-61
2022/04/27 08:26:47;;;;;;;19.02;9.45;;;11.10;99.90;;;;;;5073564;28;20376;-62
2022/04/27 08:29:12;;;;;;;22.98;11.52;;;11.00;99.90;;;;;;5074522;28;20024;-63
2022/04/27 08:31:38;;;;;;;21.73;10.27;;;11.00;99.90;;;;;;5073937;28;20437;-61
2022/04/27 08:34:04;;;;;;;19.63;9.45;;;11.10;99.90;;;;;;5074364;28;20094;-59
2022/04/27 08:36:30;;;;;;;19.75;10.27;;;11.20;99.90;;;;;;5074389;28;20024;-60
2022/04/27 08:38:56;;;;;;;19.27;9.73;;;11.20;99.90;;;;;;5073166;28;20025;-60
2022/04/27 08:41:22;;;;;;;17.90;9.40;;;11.30;99.90;;;;;;5074555;28;20033;-59
2022/04/27 08:43:47;;;;;;;18.40;9.98;;;11.50;99.90;;;;;;5074440;28;20746;-60
2022/04/27 08:46:17;;;;;;;16.25;9.43;;;11.60;99.90;;;;;;5074629;28;20020;-60
2022/04/27 08:48:50;;;;;;;20.58;9.65;;;11.80;99.90;;;;;;5074450;28;20066;-61
2022/04/27 08:51:16;;;;;;;18.45;10.20;;;11.90;99.90;;;;;;5072546;28;20550;-59
2022/04/27 08:53:42;;;;;;;18.77;10.38;;;11.90;99.90;;;;;;5074189;28;20036;-59
2022/04/27 08:56:08;;;;;;;19.60;10.93;;;11.90;99.90;;;;;;5072748;28;20396;-57
2022/04/27 08:58:34;;;;;;;17.83;10.23;;;11.90;99.90;;;;;;5073966;28;20025;-59
2022/04/27 09:01:02;;;;;;;19.45;10.85;;;12.00;99.90;;;;;;5073963;28;20028;-60
2022/04/27 09:03:32;;;;;;;17.50;10.10;;;12.00;99.90;;;;;;5074021;28;20115;-58
2022/04/27 09:05:58;;;;;;;22.27;12.38;;;12.00;99.90;;;;;;5073793;28;20036;-59
2022/04/27 09:08:45;;;;;;;20.02;11.82;;;12.10;99.90;;;;;;5073699;28;20511;-58
2022/04/27 09:11:28;;;;;;;19.65;9.73;;;12.20;99.90;;;;;;5073062;28;20039;-59
2022/04/27 09:13:53;;;;;;;16.20;10.07;;;12.30;99.90;;;;;;5073533;28;20024;-59
2022/04/27 09:16:22;;;;;;;19.98;9.38;;;12.30;99.90;;;;;;5073562;28;20035;-62
2022/04/27 09:22:14;;;;;;;18.98;10.07;;;12.40;98.90;;;;;;5073667;28;20031;-58
2022/04/27 09:24:51;;;;;;;18.63;10.13;;;12.60;98.20;;;;;;5031031;28;20037;-62
2022/04/27 09:27:19;;;;;;;17.23;9.60;;;12.50;97.80;;;;;;5064049;28;20025;-59
2022/04/27 09:30:10;;;;;;;19.75;11.02;;;12.30;98.50;;;;;;5073243;28;20069;-59
2022/04/27 09:32:36;;;;;;;15.98;8.80;;;12.20;98.00;;;;;;5053645;28;20029;-62
2022/04/27 09:35:03;;;;;;;17.25;9.63;;;12.40;98.00;;;;;;5053101;28;20029;-60
2022/04/27 09:37:36;;;;;;;18.10;10.38;;;12.60;98.90;;;;;;5052849;28;20021;-60
2022/04/27 09:40:07;;;;;;;16.85;9.30;;;12.40;98.20;;;;;;5062919;28;20036;-60
2022/04/27 09:42:37;;;;;;;18.48;9.32;;;12.50;98.60;;;;;;5071572;28;20028;-61
2022/04/27 09:45:20;;;;;;;18.15;9.80;;;12.70;98.50;;;;;;5071438;28;20158;-57
2022/04/27 09:47:50;;;;;;;35.33;14.30;;;12.90;98.00;;;;;;5072838;28;20147;-57
2022/04/27 09:50:17;;;;;;;20.60;10.15;;;13.00;98.60;;;;;;5073068;28;20392;-58
2022/04/27 09:52:44;;;;;;;18.02;9.80;;;13.20;97.40;;;;;;5073124;28;20028;-61
2022/04/27 09:55:10;;;;;;;18.58;10.32;;;13.50;96.80;;;;;;5072758;28;20035;-62
2022/04/27 09:57:38;;;;;;;19.45;11.40;;;13.50;96.30;;;;;;5058464;28;20415;-61
2022/04/27 10:00:05;;;;;;;22.80;10.10;;;13.50;95.90;;;;;;5052651;28;20040;-60
2022/04/27 10:02:32;;;;;;;18.67;10.35;;;13.50;96.10;;;;;;5052493;28;20083;-58
2022/04/27 10:05:02;;;;;;;21.73;12.25;;;13.60;96.20;;;;;;5051259;28;20416;-60
2022/04/27 10:07:32;;;;;;;18.73;10.23;;;13.60;95.80;;;;;;5052657;28;20025;-62
2022/04/27 10:09:59;;;;;;;17.10;10.15;;;13.50;94.70;;;;;;5050771;28;20025;-60
2022/04/27 10:12:25;;;;;;;16.83;11.13;;;13.50;95.10;;;;;;5052374;28;20025;-56
2022/04/27 10:14:50;;;;;;;18.60;10.52;;;13.50;95.00;;;;;;5050776;28;20477;-58
2022/04/27 10:17:16;;;;;;;20.88;10.80;;;13.50;94.90;;;;;;5052956;28;20036;-60
2022/04/27 10:19:50;;;;;;;17.77;10.25;;;13.40;94.90;;;;;;5052317;28;20052;-61
2022/04/27 10:22:33;;;;;;;17.73;10.30;;;13.60;95.00;;;;;;5052361;28;20380;-59
2022/04/27 10:25:11;;;;;;;21.23;10.90;;;13.70;94.20;;;;;;5051789;28;20064;-61
2022/04/27 10:27:40;;;;;;;18.63;10.88;;;13.90;95.10;;;;;;5052517;28;20025;-59
2022/04/27 10:30:10;;;;;;;17.17;10.52;;;14.10;94.10;;;;;;5052121;28;20025;-61
2022/04/27 10:32:47;;;;;;;19.77;10.27;;;14.10;94.10;;;;;;5052553;28;20030;-61
2022/04/27 10:35:14;;;;;;;19.05;10.18;;;14.40;94.00;;;;;;5052136;28;20048;-61
2022/04/27 10:37:57;;;;;;;20.25;11.02;;;14.50;93.30;;;;;;5052050;28;20045;-59
2022/04/27 10:40:34;;;;;;;61.30;20.33;;;14.60;93.30;;;;;;5051553;28;20036;-59
2022/04/27 10:43:06;;;;;;;18.13;11.07;;;14.70;93.60;;;;;;5051879;28;20031;-58
2022/04/27 10:45:37;;;;;;;19.58;11.10;;;14.60;92.10;;;;;;5051669;28;20017;-60
2022/04/27 10:48:07;;;;;;;20.80;11.77;;;14.40;92.70;;;;;;5050611;28;20501;-61
2022/04/27 10:50:35;;;;;;;18.25;10.52;;;14.40;92.00;;;;;;5050498;28;20032;-58
2022/04/27 10:53:21;;;;;;;19.42;11.30;;;14.20;92.50;;;;;;5051739;28;20437;-60
2022/04/27 10:55:53;;;;;;;18.48;11.98;;;14.00;92.00;;;;;;5051883;28;20036;-60
2022/04/27 10:58:42;;;;;;;18.00;11.18;;;14.00;92.60;;;;;;5061926;28;20384;-57
2022/04/27 11:01:11;;;;;;;18.17;10.70;;;14.10;92.80;;;;;;5071441;28;20041;-64
2022/04/27 11:03:41;;;;;;;19.15;10.15;;;14.30;93.20;;;;;;5071794;28;20465;-58
2022/04/27 11:06:08;;;;;;;17.58;10.20;;;14.60;94.20;;;;;;5071711;28;20025;-63
2022/04/27 11:09:04;;;;;;;54.10;16.67;;;15.00;93.30;;;;;;5071562;28;20025;-61
2022/04/27 11:11:31;;;;;;;19.55;10.43;;;15.80;92.50;;;;;;5055174;28;20029;-62
2022/04/27 11:14:06;;;;;;;17.52;9.65;;;16.90;91.00;;;;;;5071377;28;20490;-62
2022/04/27 11:16:43;;;;;;;17.77;10.07;;;17.60;86.80;;;;;;4718353;28;10000011;-63
2022/04/27 11:19:09;;;;;;;16.73;9.90;;;18.20;85.80;;;;;;5059626;28;20017;-60
2022/04/27 11:21:34;;;;;;;23.67;15.10;;;18.60;85.30;;;;;;5061111;28;20025;-65
2022/04/27 11:24:05;;;;;;;18.70;11.23;;;18.50;83.00;;;;;;5053234;28;20025;-64
2022/04/27 11:26:39;;;;;;;17.75;10.80;;;18.10;81.70;;;;;;5066528;28;20684;-69
2022/04/27 11:29:06;;;;;;;17.65;10.88;;;;;;;;;;5073911;28;20032;-69
2022/04/27 11:31:33;;;;;;;17.27;10.60;;;18.50;81.70;;;;;;5073492;28;20020;-70
2022/04/27 11:33:59;;;;;;;17.67;10.77;;;19.70;81.40;;;;;;5072857;28;20440;-71
2022/04/27 11:36:26;;;;;;;22.90;11.48;;;19.60;78.30;;;;;;5074927;28;20056;-70
2022/04/27 11:38:53;;;;;;;20.67;12.43;;;20.30;78.00;;;;;;5072816;28;20036;-71
2022/04/27 11:41:20;;;;;;;19.88;11.32;;;20.80;76.20;;;;;;5074432;28;20484;-70
2022/04/27 11:43:47;;;;;;;18.30;12.38;;;20.80;72.80;;;;;;5074300;28;20025;-70
2022/04/27 11:46:13;;;;;;;16.63;10.88;;;21.60;72.20;;;;;;5074098;28;20028;-71
2022/04/27 11:48:39;;;;;;;18.85;11.48;;;20.90;69.90;;;;;;5074071;28;20096;-69
2022/04/27 11:51:06;;;;;;;19.30;11.55;;;20.50;69.50;;;;;;5065999;28;20025;-70
2022/04/27 11:53:42;;;;;;;18.17;11.80;;;20.00;69.80;;;;;;5052769;28;20456;-69
2022/04/27 11:56:09;;;;;;;19.45;11.90;;;19.20;70.90;;;;;;5053742;28;20056;-69
2022/04/27 11:58:34;;;;;;;21.90;11.88;;;20.20;69.90;;;;;;5054372;28;20063;-69
2022/04/27 12:01:01;;;;;;;18.08;11.90;;;21.00;70.80;;;;;;5054097;28;20057;-70
2022/04/27 12:03:28;;;;;;;17.58;11.40;;;21.70;68.30;;;;;;5073215;28;20070;-70
2022/04/27 12:05:55;;;;;;;20.70;11.88;;;21.20;66.60;;;;;;5073585;28;20017;-67
2022/04/27 12:08:23;;;;;;;18.98;11.10;;;21.20;67.10;;;;;;5073970;28;20039;-68
2022/04/27 12:10:51;;;;;;;17.67;11.35;;;20.10;66.60;;;;;;5072781;28;20028;-70
2022/04/27 12:13:21;;;;;;;19.15;11.93;;;20.00;68.90;;;;;;5072112;28;20691;-70
2022/04/27 12:15:50;;;;;;;24.58;12.10;;;20.20;67.40;;;;;;5073496;28;20064;-70
2022/04/27 12:18:17;;;;;;;22.52;12.07;;;20.00;67.80;;;;;;5073720;28;20028;-69
2022/04/27 12:20:45;;;;;;;17.73;11.75;;;20.60;67.00;;;;;;5074372;28;20020;-70
2022/04/27 12:23:18;;;;;;;18.38;12.18;;;21.20;65.40;;;;;;5074134;28;20415;-70
2022/04/27 12:25:58;;;;;;;18.38;11.88;;;22.10;65.20;;;;;;5075229;28;20040;-69
2022/04/27 12:28:32;;;;;;;18.45;11.90;;;22.30;63.10;;;;;;5074322;28;20024;-69
2022/04/27 12:31:00;;;;;;;18.15;11.75;;;22.20;62.70;;;;;;5071922;28;20028;-69
2022/04/27 12:33:38;;;;;;;20.30;12.63;;;22.20;63.20;;;;;;5071946;28;20028;-70
2022/04/27 12:38:56;;;;;;;21.10;12.23;;;23.80;61.90;;;;;;5074495;28;20104;-71
2022/04/27 12:41:41;;;;;;;18.52;12.57;;;23.00;60.80;;;;;;5073068;28;20040;-70
2022/04/27 12:44:20;;;;;;;18.63;13.02;;;23.20;60.70;;;;;;5073457;28;20028;-70
2022/04/27 12:46:59;;;;;;;17.65;12.30;;;23.40;60.40;;;;;;5074522;28;20021;-70
2022/04/27 12:49:29;;;;;;;18.77;12.35;;;23.60;60.90;;;;;;5073011;28;20028;-71
2022/04/27 12:51:57;;;;;;;19.58;12.55;;;23.20;60.80;;;;;;5074768;28;20048;-66
2022/04/27 12:54:35;;;;;;;21.88;16.08;;;23.40;61.40;;;;;;5073802;28;20070;-66